Time;durP1;ratioP1;P1;durP2;ratioP2;P2;SDS_P1;SDS_P2;PMS_P1;PMS_P2;Temp;Humidity;BMP_temperature;BMP_pressure;BME280_temperature;BME280_humidity;BME280_pressure;Samples;Min_cycle;Max_cycle;Signal;HPM_P1;HPM_P2
2023/01/20 00:01:42;;;;;;;7.63;3.00;;;0.50;98.00;;;;;;5114861;28;20528;-65
2023/01/20 00:04:09;;;;;;;5.00;2.90;;;0.60;98.00;;;;;;5114872;28;20466;-65
2023/01/20 00:06:36;;;;;;;4.03;2.90;;;0.50;98.00;;;;;;5096931;28;20470;-65
2023/01/20 00:09:04;;;;;;;4.23;2.63;;;0.60;98.00;;;;;;5114877;28;20816;-65
2023/01/20 00:11:32;;;;;;;2.23;2.07;;;0.70;98.00;;;;;;5114666;28;20855;-65
2023/01/20 00:14:02;;;;;;;4.07;3.33;;;0.60;98.00;;;;;;5114913;28;20847;-64
2023/01/20 00:16:31;;;;;;;7.73;3.60;;;0.60;98.00;;;;;;5114769;28;20875;-65
2023/01/20 00:18:59;;;;;;;6.40;3.50;;;0.50;98.00;;;;;;5114767;28;20953;-65
2023/01/20 00:21:26;;;;;;;4.83;2.63;;;0.40;98.00;;;;;;5114626;28;20508;-65
2023/01/20 00:23:53;;;;;;;4.50;3.03;;;0.40;98.00;;;;;;5114680;28;20772;-65
2023/01/20 00:26:23;;;;;;;2.47;2.00;;;0.40;98.00;;;;;;5114712;28;20459;-65
2023/01/20 00:28:53;;;;;;;6.37;3.20;;;0.30;98.00;;;;;;5114702;28;20462;-65
2023/01/20 00:31:22;;;;;;;4.90;3.17;;;0.40;98.00;;;;;;5114812;28;20479;-65
2023/01/20 00:33:51;;;;;;;6.20;3.00;;;0.30;98.00;;;;;;5114808;28;20458;-65
2023/01/20 00:36:19;;;;;;;5.57;2.80;;;0.30;98.00;;;;;;5115068;28;20473;-65
2023/01/20 00:38:50;;;;;;;5.70;3.60;;;0.40;98.00;;;;;;5114889;28;20447;-65
2023/01/20 00:41:18;;;;;;;6.87;3.10;;;0.30;98.00;;;;;;5114575;28;21082;-65
2023/01/20 00:43:46;;;;;;;6.10;2.93;;;0.30;98.00;;;;;;5114471;28;20462;-65
2023/01/20 00:46:13;;;;;;;4.70;2.83;;;0.40;98.00;;;;;;5114089;28;20454;-64
2023/01/20 00:48:42;;;;;;;4.27;3.10;;;0.40;98.00;;;;;;5114040;28;20463;-64
2023/01/20 00:51:10;;;;;;;6.00;3.50;;;0.50;98.00;;;;;;5095904;28;20487;-64
2023/01/20 00:53:37;;;;;;;4.80;4.00;;;0.50;98.00;;;;;;5113937;28;20538;-65
2023/01/20 00:56:05;;;;;;;5.57;3.60;;;0.40;98.00;;;;;;5113889;28;20454;-65
2023/01/20 00:58:32;;;;;;;5.90;3.47;;;0.50;98.00;;;;;;5113753;28;20447;-64
2023/01/20 01:01:00;;;;;;;7.63;3.13;;;0.60;98.00;;;;;;5113705;28;20488;-65
2023/01/20 01:03:27;;;;;;;6.67;3.17;;;0.60;98.00;;;;;;5113768;28;20455;-65
2023/01/20 01:06:06;;;;;;;4.40;3.17;;;0.60;98.00;;;;;;5113627;28;20559;-65
2023/01/20 01:08:34;;;;;;;7.40;3.67;;;0.60;98.00;;;;;;5112669;28;20544;-65
2023/01/20 01:11:03;;;;;;;4.50;2.73;;;0.70;98.00;;;;;;5113628;28;20475;-65
2023/01/20 01:13:30;;;;;;;5.30;3.50;;;0.70;98.00;;;;;;5113585;28;20498;-65
2023/01/20 01:15:57;;;;;;;5.93;3.50;;;0.80;98.00;;;;;;5113541;28;20462;-64
2023/01/20 01:18:24;;;;;;;3.80;2.83;;;0.80;98.00;;;;;;5113622;28;20454;-64
2023/01/20 01:20:52;;;;;;;4.50;3.40;;;0.90;98.00;;;;;;5113600;28;20459;-65
2023/01/20 01:23:21;;;;;;;7.70;4.20;;;1.10;98.00;;;;;;5113492;28;20462;-65
2023/01/20 01:25:48;;;;;;;9.17;3.47;;;1.10;98.00;;;;;;5113363;28;20570;-65
2023/01/20 01:28:15;;;;;;;5.10;2.80;;;1.30;98.00;;;;;;5095558;28;20455;-64
2023/01/20 01:30:42;;;;;;;10.30;4.93;;;1.30;98.00;;;;;;5112989;28;20455;-65
2023/01/20 01:33:09;;;;;;;7.17;3.30;;;1.20;98.00;;;;;;5113601;28;20799;-65
2023/01/20 01:35:36;;;;;;;5.23;2.70;;;1.00;98.00;;;;;;5113124;28;20512;-64
2023/01/20 01:38:04;;;;;;;4.50;3.10;;;0.90;98.00;;;;;;5113073;28;20458;-64
2023/01/20 01:40:34;;;;;;;4.33;2.87;;;0.80;98.00;;;;;;5094544;28;20448;-65
2023/01/20 01:43:01;;;;;;;5.87;3.50;;;0.80;98.00;;;;;;5113049;28;20451;-65
2023/01/20 01:45:30;;;;;;;4.70;3.23;;;0.80;98.00;;;;;;5112890;28;20451;-64
2023/01/20 01:48:03;;;;;;;4.87;2.53;;;0.60;98.00;;;;;;5112614;28;20470;-65
2023/01/20 01:50:36;;;;;;;4.17;2.60;;;0.60;98.00;;;;;;5112686;28;20463;-65
2023/01/20 01:53:03;;;;;;;7.10;2.93;;;0.60;98.00;;;;;;5112720;28;20491;-64
2023/01/20 01:55:37;;;;;;;4.17;3.40;;;0.60;98.00;;;;;;5112560;28;20454;-64
2023/01/20 01:58:06;;;;;;;4.97;2.37;;;0.60;98.00;;;;;;5112712;28;20528;-65
2023/01/20 02:00:34;;;;;;;7.70;4.10;;;0.70;98.00;;;;;;5112585;28;20939;-65
2023/01/20 02:03:02;;;;;;;6.37;3.67;;;0.70;98.00;;;;;;5112574;28;20455;-65
2023/01/20 02:05:31;;;;;;;12.97;3.80;;;0.70;98.00;;;;;;5112529;28;20849;-65
2023/01/20 02:07:59;;;;;;;6.70;4.00;;;0.70;98.00;;;;;;5112700;28;20512;-65
2023/01/20 02:10:26;;;;;;;12.87;5.20;;;0.70;98.00;;;;;;5112498;28;20447;-64
2023/01/20 02:12:55;;;;;;;4.37;3.10;;;0.70;98.00;;;;;;5094805;28;20486;-64
2023/01/20 02:15:27;;;;;;;6.33;3.80;;;0.80;98.00;;;;;;5112404;28;20478;-65
2023/01/20 02:18:08;;;;;;;5.20;2.77;;;0.90;98.00;;;;;;5112393;28;20457;-65
2023/01/20 02:20:55;;;;;;;13.60;4.77;;;0.80;98.00;;;;;;5096016;28;20466;-65
2023/01/20 02:23:45;;;;;;;5.77;3.60;;;0.90;98.00;;;;;;5112746;28;20848;-65
2023/01/20 02:26:43;;;;;;;9.70;3.87;;;1.00;98.00;;;;;;5112584;28;20830;-65
2023/01/20 02:29:54;;;;;;;5.77;2.90;;;1.10;98.00;;;;;;5067466;28;20883;-64
2023/01/20 02:32:37;;;;;;;2.53;2.33;;;1.00;98.00;;;;;;5112287;28;20482;-64
2023/01/20 02:35:12;;;;;;;11.13;4.17;;;1.00;98.00;;;;;;5112322;28;21126;-64
2023/01/20 02:37:48;;;;;;;6.97;3.77;;;1.00;98.00;;;;;;5093685;28;20469;-65
2023/01/20 02:40:29;;;;;;;7.23;3.47;;;0.90;98.00;;;;;;5112131;28;20466;-64
2023/01/20 02:43:05;;;;;;;4.80;3.37;;;0.90;98.00;;;;;;5112016;28;20459;-64
2023/01/20 02:45:37;;;;;;;9.33;3.70;;;0.90;98.00;;;;;;5094896;28;20541;-64
2023/01/20 02:48:12;;;;;;;6.47;3.27;;;0.80;98.00;;;;;;5111934;28;20508;-64
2023/01/20 02:50:45;;;;;;;5.63;3.17;;;0.80;98.00;;;;;;5111983;28;20450;-65
2023/01/20 02:53:14;;;;;;;4.80;3.43;;;0.80;98.00;;;;;;5112058;28;20558;-65
2023/01/20 02:55:44;;;;;;;4.87;3.67;;;0.70;98.00;;;;;;5112021;28;20467;-65
2023/01/20 02:58:18;;;;;;;6.57;2.90;;;0.70;98.00;;;;;;5112213;28;20459;-65
2023/01/20 03:00:51;;;;;;;6.63;3.70;;;0.70;98.00;;;;;;5111909;28;20466;-65
2023/01/20 03:03:25;;;;;;;12.17;3.90;;;0.70;98.00;;;;;;5112226;28;20455;-65
2023/01/20 03:05:55;;;;;;;12.50;3.70;;;0.80;98.00;;;;;;5112022;28;20451;-65
2023/01/20 03:08:27;;;;;;;3.40;3.00;;;0.90;98.00;;;;;;5112009;28;20454;-65
2023/01/20 03:10:57;;;;;;;8.80;4.43;;;0.90;98.00;;;;;;5112050;28;20902;-64
2023/01/20 03:13:32;;;;;;;3.87;2.93;;;0.90;98.00;;;;;;5112079;28;20487;-65
2023/01/20 03:16:02;;;;;;;5.27;3.30;;;1.00;98.00;;;;;;5112136;28;20949;-65
2023/01/20 03:18:33;;;;;;;6.60;3.67;;;1.00;98.00;;;;;;5112071;28;20451;-65
2023/01/20 03:21:02;;;;;;;8.00;3.40;;;1.10;98.00;;;;;;5112066;28;20454;-64
2023/01/20 03:23:33;;;;;;;5.53;3.40;;;1.30;98.00;;;;;;5111961;28;20512;-64
2023/01/20 03:26:03;;;;;;;3.80;2.77;;;1.20;98.00;;;;;;5094279;28;20903;-64
2023/01/20 03:28:30;;;;;;;9.00;3.67;;;1.00;98.00;;;;;;5111399;28;20466;-65
2023/01/20 03:30:58;;;;;;;4.83;3.10;;;0.90;98.00;;;;;;5113557;28;20512;-64
2023/01/20 03:33:26;;;;;;;4.33;3.40;;;0.80;98.00;;;;;;5115111;28;20892;-65
2023/01/20 03:35:55;;;;;;;5.90;3.67;;;0.80;98.00;;;;;;5115262;28;20455;-64
2023/01/20 03:38:23;;;;;;;3.83;2.90;;;0.70;98.00;;;;;;5115658;28;20455;-65
2023/01/20 03:41:00;;;;;;;4.97;3.00;;;0.70;98.00;;;;;;5115354;28;20463;-65
2023/01/20 03:43:36;;;;;;;6.20;3.70;;;0.50;98.00;;;;;;5115272;28;21112;-64
2023/01/20 03:46:11;;;;;;;5.60;3.07;;;0.60;98.00;;;;;;5115250;28;20790;-64
2023/01/20 03:48:42;;;;;;;6.37;3.60;;;0.80;98.00;;;;;;5114917;28;20854;-65
2023/01/20 03:51:19;;;;;;;7.57;4.00;;;0.90;98.00;;;;;;5114815;28;20474;-64
2023/01/20 03:53:51;;;;;;;4.70;2.90;;;0.80;98.00;;;;;;5114755;28;20779;-65
2023/01/20 03:56:22;;;;;;;5.40;3.20;;;0.90;98.00;;;;;;5115047;28;20461;-64
2023/01/20 03:58:53;;;;;;;5.50;3.50;;;0.90;98.00;;;;;;5114987;28;20455;-65
2023/01/20 04:01:23;;;;;;;6.60;3.80;;;0.90;98.00;;;;;;5115044;28;20451;-65
2023/01/20 04:03:54;;;;;;;4.40;3.00;;;0.90;98.00;;;;;;5114943;28;20504;-65
2023/01/20 04:06:25;;;;;;;3.53;2.90;;;0.80;98.00;;;;;;5114900;28;20959;-65
2023/01/20 04:08:58;;;;;;;9.30;3.30;;;0.80;98.00;;;;;;5114972;28;20929;-64
2023/01/20 04:11:26;;;;;;;6.40;3.57;;;0.80;98.00;;;;;;5114807;28;21090;-65
2023/01/20 04:13:54;;;;;;;7.03;3.00;;;0.80;98.00;;;;;;5114762;28;20507;-65
2023/01/20 04:16:22;;;;;;;6.17;4.27;;;0.80;98.00;;;;;;5096754;28;20454;-64
2023/01/20 04:18:51;;;;;;;8.30;3.80;;;0.90;98.00;;;;;;5096881;28;20451;-64
2023/01/20 04:21:24;;;;;;;4.20;3.00;;;0.90;98.00;;;;;;5114593;28;20458;-65
2023/01/20 04:23:57;;;;;;;13.03;4.43;;;0.90;98.00;;;;;;5114843;28;20945;-65
2023/01/20 04:26:24;;;;;;;9.83;4.30;;;0.90;98.00;;;;;;5114653;28;20459;-65
2023/01/20 04:28:51;;;;;;;8.87;3.97;;;0.90;98.00;;;;;;5114474;28;20450;-64
2023/01/20 04:31:18;;;;;;;10.70;5.13;;;1.00;98.00;;;;;;5114625;28;20459;-65
2023/01/20 04:33:45;;;;;;;7.40;3.90;;;1.00;98.00;;;;;;5114702;28;20488;-65
2023/01/20 04:36:12;;;;;;;5.47;2.90;;;1.10;98.00;;;;;;5096617;28;20821;-65
2023/01/20 04:38:41;;;;;;;6.87;3.00;;;1.00;98.00;;;;;;5114213;28;20458;-65
2023/01/20 04:41:11;;;;;;;6.03;3.80;;;1.00;98.00;;;;;;5113912;28;21023;-65
2023/01/20 04:43:38;;;;;;;3.37;2.47;;;0.90;98.00;;;;;;5114179;28;20447;-65
2023/01/20 04:46:05;;;;;;;10.13;5.57;;;0.80;98.00;;;;;;5113849;28;20963;-64
2023/01/20 04:48:32;;;;;;;7.60;3.33;;;0.80;98.00;;;;;;5114118;28;20460;-65
2023/01/20 04:51:03;;;;;;;5.13;3.30;;;0.80;98.00;;;;;;5113870;28;20459;-64
2023/01/20 04:53:30;;;;;;;9.37;3.50;;;0.80;98.00;;;;;;5113966;28;20483;-64
2023/01/20 04:55:59;;;;;;;7.67;4.27;;;0.80;98.00;;;;;;5113749;28;20469;-65
2023/01/20 04:58:26;;;;;;;7.53;3.47;;;0.80;98.00;;;;;;5113486;28;20986;-65
2023/01/20 05:00:53;;;;;;;6.03;3.10;;;0.80;98.00;;;;;;5113850;28;20841;-65
2023/01/20 05:03:20;;;;;;;5.60;3.40;;;0.80;98.00;;;;;;5113925;28;20451;-65
2023/01/20 05:05:52;;;;;;;7.97;3.60;;;0.70;98.00;;;;;;5095666;28;20833;-65
2023/01/20 05:08:19;;;;;;;8.20;4.67;;;0.70;98.00;;;;;;5113900;28;20514;-65
2023/01/20 05:10:46;;;;;;;5.20;3.10;;;0.70;98.00;;;;;;5113416;28;21025;-65
2023/01/20 05:13:15;;;;;;;8.67;4.10;;;0.70;98.00;;;;;;5113657;28;20829;-65
2023/01/20 05:15:43;;;;;;;6.77;4.47;;;0.80;98.00;;;;;;5113399;28;20867;-65
2023/01/20 05:18:11;;;;;;;7.80;4.13;;;0.70;98.00;;;;;;5113648;28;20932;-65
2023/01/20 05:20:38;;;;;;;6.90;3.87;;;0.70;98.00;;;;;;5095293;27;20779;-64
2023/01/20 05:23:05;;;;;;;5.27;2.90;;;0.70;98.00;;;;;;5113619;28;20463;-65
2023/01/20 05:25:32;;;;;;;3.80;2.67;;;0.60;98.00;;;;;;5113423;28;20454;-65
2023/01/20 05:27:59;;;;;;;9.60;3.63;;;0.40;98.00;;;;;;5113486;28;20455;-65
2023/01/20 05:30:28;;;;;;;10.43;4.93;;;0.50;98.00;;;;;;5113235;28;20517;-64
2023/01/20 05:32:56;;;;;;;4.67;3.30;;;0.60;98.00;;;;;;5113328;28;20489;-65
2023/01/20 05:35:23;;;;;;;4.13;2.47;;;0.70;98.00;;;;;;5113368;28;20465;-65
2023/01/20 05:37:53;;;;;;;6.17;3.67;;;0.80;98.00;;;;;;5113008;28;20451;-65
2023/01/20 05:40:21;;;;;;;6.10;3.60;;;0.80;98.00;;;;;;5113030;28;20546;-64
2023/01/20 05:42:48;;;;;;;6.03;2.63;;;0.70;98.00;;;;;;5112877;28;20458;-65
2023/01/20 05:45:15;;;;;;;6.73;3.80;;;0.70;98.00;;;;;;5112936;28;20459;-64
2023/01/20 05:47:45;;;;;;;9.23;4.20;;;0.70;98.00;;;;;;5112825;28;20459;-65
2023/01/20 05:50:12;;;;;;;9.87;5.00;;;0.70;98.00;;;;;;5112658;28;21010;-65
2023/01/20 05:52:39;;;;;;;11.90;4.00;;;0.70;98.00;;;;;;5112511;28;20471;-65
2023/01/20 05:55:07;;;;;;;14.10;3.87;;;0.70;98.00;;;;;;5112490;28;20825;-65
2023/01/20 05:57:36;;;;;;;6.30;3.83;;;0.60;98.00;;;;;;5112799;28;20947;-64
2023/01/20 06:00:04;;;;;;;7.23;3.33;;;0.70;98.00;;;;;;5094753;28;20497;-64
2023/01/20 06:02:32;;;;;;;5.93;4.00;;;0.60;98.00;;;;;;5112725;28;20471;-65
2023/01/20 06:05:01;;;;;;;9.60;3.43;;;0.70;98.00;;;;;;5112645;28;20498;-65
2023/01/20 06:07:29;;;;;;;7.57;4.13;;;0.80;98.00;;;;;;5094692;28;20976;-65
2023/01/20 06:09:57;;;;;;;8.57;5.00;;;1.00;98.00;;;;;;5112500;28;20455;-65
2023/01/20 06:12:24;;;;;;;9.40;5.00;;;1.00;98.00;;;;;;5112594;28;20486;-64
2023/01/20 06:14:52;;;;;;;9.50;4.10;;;1.10;98.00;;;;;;5112582;28;20447;-64
2023/01/20 06:17:19;;;;;;;10.70;3.80;;;0.90;98.00;;;;;;5112672;28;20453;-64
2023/01/20 06:19:46;;;;;;;6.50;3.60;;;0.80;98.00;;;;;;5112421;28;20447;-65
2023/01/20 06:22:15;;;;;;;9.73;4.10;;;0.70;98.00;;;;;;5112533;28;20927;-65
2023/01/20 06:24:42;;;;;;;5.07;3.53;;;0.70;98.00;;;;;;5112328;28;20455;-65
2023/01/20 06:27:10;;;;;;;6.93;4.23;;;0.70;98.00;;;;;;5094642;28;20451;-65
2023/01/20 06:29:37;;;;;;;12.47;4.97;;;0.80;98.00;;;;;;5112604;28;20515;-64
2023/01/20 06:32:06;;;;;;;6.20;3.37;;;0.80;98.00;;;;;;5112587;28;20459;-65
2023/01/20 06:34:33;;;;;;;11.67;4.53;;;0.80;98.00;;;;;;5112304;28;20862;-65
2023/01/20 06:37:02;;;;;;;6.80;4.70;;;0.70;98.00;;;;;;5111962;28;20451;-64
2023/01/20 06:39:31;;;;;;;5.30;3.30;;;0.70;98.00;;;;;;5112315;28;20490;-64
2023/01/20 06:41:59;;;;;;;5.23;3.17;;;0.70;98.00;;;;;;5093674;28;20488;-65
2023/01/20 06:44:27;;;;;;;8.27;4.10;;;0.80;98.00;;;;;;5112096;28;20458;-65
2023/01/20 06:46:56;;;;;;;5.63;2.63;;;0.90;98.00;;;;;;5111625;28;20462;-64
2023/01/20 06:49:23;;;;;;;4.80;3.37;;;1.00;98.00;;;;;;5094416;28;20451;-64
2023/01/20 06:51:50;;;;;;;5.90;3.73;;;1.20;98.00;;;;;;5112027;28;20744;-65
2023/01/20 06:54:18;;;;;;;7.30;4.10;;;1.20;98.00;;;;;;5111864;28;20486;-64
2023/01/20 06:56:46;;;;;;;4.93;4.10;;;1.20;98.00;;;;;;5111975;28;20455;-65
2023/01/20 06:59:13;;;;;;;9.37;3.77;;;1.20;98.00;;;;;;5111973;28;20458;-64
2023/01/20 07:01:40;;;;;;;3.80;3.07;;;1.10;98.00;;;;;;5111944;28;20478;-62
2023/01/20 07:04:08;;;;;;;7.60;4.13;;;1.10;98.00;;;;;;5094361;28;20451;-62
2023/01/20 07:06:37;;;;;;;7.73;4.00;;;1.20;98.00;;;;;;5115984;28;21024;-62
2023/01/20 07:09:06;;;;;;;4.57;3.43;;;1.00;98.00;;;;;;5116109;28;20534;-62
2023/01/20 07:11:34;;;;;;;5.17;4.03;;;1.00;98.00;;;;;;5116046;28;20515;-62
2023/01/20 07:14:02;;;;;;;5.60;4.23;;;1.00;98.00;;;;;;5115887;28;20479;-62
2023/01/20 07:16:33;;;;;;;7.57;5.00;;;1.00;98.00;;;;;;5115954;28;20450;-62
2023/01/20 07:19:00;;;;;;;4.00;3.10;;;1.00;98.00;;;;;;5115969;28;20941;-62
2023/01/20 07:21:27;;;;;;;7.20;3.33;;;1.20;98.00;;;;;;5115894;28;20459;-62
2023/01/20 07:23:55;;;;;;;3.53;3.03;;;1.30;98.00;;;;;;5115978;28;20458;-62
2023/01/20 07:26:25;;;;;;;5.60;3.63;;;1.30;98.00;;;;;;5115869;28;20849;-61
2023/01/20 07:28:53;;;;;;;12.63;5.30;;;1.40;98.00;;;;;;5116039;28;20511;-61
2023/01/20 07:31:23;;;;;;;7.00;3.70;;;1.40;98.00;;;;;;5115637;28;20459;-62
2023/01/20 07:33:51;;;;;;;6.50;3.70;;;1.40;98.00;;;;;;5115699;28;20478;-61
2023/01/20 07:36:18;;;;;;;4.90;3.43;;;1.40;98.00;;;;;;5115365;28;20458;-61
2023/01/20 07:38:47;;;;;;;4.63;3.40;;;1.40;98.00;;;;;;5115509;28;20941;-61
2023/01/20 07:41:15;;;;;;;4.37;3.13;;;1.40;98.00;;;;;;5115018;28;20455;-61
2023/01/20 07:43:42;;;;;;;8.87;3.90;;;1.50;98.00;;;;;;5115302;28;20960;-61
2023/01/20 07:46:09;;;;;;;10.07;3.17;;;1.50;98.00;;;;;;5115108;28;20486;-61
2023/01/20 07:48:38;;;;;;;7.17;3.23;;;1.60;98.00;;;;;;5115139;28;20451;-61
2023/01/20 07:51:08;;;;;;;3.60;3.30;;;1.60;98.00;;;;;;5115177;28;20458;-61
2023/01/20 07:53:37;;;;;;;3.80;2.70;;;1.70;98.00;;;;;;5114962;28;20479;-63
2023/01/20 07:56:07;;;;;;;13.20;3.87;;;1.80;98.00;;;;;;5115118;28;20937;-61
2023/01/20 07:58:35;;;;;;;10.30;3.70;;;1.80;98.00;;;;;;5115117;28;20454;-61
2023/01/20 08:01:08;;;;;;;12.60;4.80;;;1.80;98.00;;;;;;5114890;28;20456;-61
2023/01/20 08:03:35;;;;;;;8.47;4.40;;;1.80;98.00;;;;;;5115035;28;20478;-61
2023/01/20 08:06:04;;;;;;;7.80;4.20;;;1.80;98.00;;;;;;5114908;28;20457;-61
2023/01/20 08:08:34;;;;;;;7.60;3.67;;;1.80;98.00;;;;;;5114792;28;20452;-61
2023/01/20 08:11:02;;;;;;;7.50;4.60;;;1.90;98.00;;;;;;5114755;28;20544;-61
2023/01/20 08:13:31;;;;;;;3.90;2.77;;;1.80;98.00;;;;;;5114915;28;20486;-61
2023/01/20 08:16:01;;;;;;;7.73;3.97;;;1.70;98.00;;;;;;5096123;28;20516;-62
2023/01/20 08:18:31;;;;;;;7.47;4.23;;;1.80;98.00;;;;;;5114890;28;20498;-61
2023/01/20 08:20:58;;;;;;;6.90;4.43;;;1.80;98.00;;;;;;5114836;28;20463;-61
2023/01/20 08:23:27;;;;;;;7.00;3.87;;;1.90;98.00;;;;;;5115205;28;20455;-61
2023/01/20 08:25:58;;;;;;;9.40;4.37;;;2.00;98.00;;;;;;5115641;28;20455;-61
2023/01/20 08:28:25;;;;;;;6.73;3.93;;;1.90;98.00;;;;;;5115007;28;21213;-61
2023/01/20 08:31:03;;;;;;;9.70;4.67;;;1.80;98.00;;;;;;5114666;28;20460;-61
2023/01/20 08:33:31;;;;;;;6.37;3.87;;;1.80;98.00;;;;;;5114668;28;20992;-62
2023/01/20 08:36:04;;;;;;;6.37;4.07;;;1.80;98.00;;;;;;5113873;28;20983;-61
2023/01/20 08:38:33;;;;;;;8.67;4.33;;;1.70;98.00;;;;;;5113896;28;20525;-61
2023/01/20 08:41:00;;;;;;;5.97;3.97;;;1.70;98.00;;;;;;5113582;28;20975;-61
2023/01/20 08:43:27;;;;;;;6.90;3.97;;;1.70;98.00;;;;;;5095967;28;20478;-61
2023/01/20 08:46:00;;;;;;;5.30;4.00;;;1.80;98.00;;;;;;5114828;28;20542;-61
2023/01/20 08:48:28;;;;;;;12.53;4.70;;;1.90;98.00;;;;;;5113743;28;20530;-61
2023/01/20 08:50:55;;;;;;;14.47;4.83;;;2.00;98.00;;;;;;5114052;28;20451;-61
2023/01/20 08:53:22;;;;;;;4.90;3.70;;;2.10;98.00;;;;;;5113526;28;20493;-61
2023/01/20 08:55:58;;;;;;;13.33;5.77;;;2.10;98.00;;;;;;5110228;28;20952;-62
2023/01/20 08:58:26;;;;;;;10.47;4.10;;;2.10;98.00;;;;;;5113342;28;20463;-62
2023/01/20 09:00:53;;;;;;;10.40;4.40;;;2.20;98.00;;;;;;5112125;28;20815;-61
2023/01/20 09:03:21;;;;;;;8.40;4.60;;;2.20;98.00;;;;;;5113075;28;20953;-62
2023/01/20 09:05:49;;;;;;;5.63;3.93;;;2.30;98.00;;;;;;5112793;28;20458;-61
2023/01/20 09:08:17;;;;;;;10.77;4.33;;;2.30;98.00;;;;;;5112966;28;20862;-62
2023/01/20 09:10:44;;;;;;;5.90;3.87;;;2.40;98.00;;;;;;5112853;28;20483;-61
2023/01/20 09:13:13;;;;;;;9.63;4.53;;;2.40;98.00;;;;;;5112882;28;20461;-62
2023/01/20 09:15:43;;;;;;;13.63;5.53;;;2.50;98.00;;;;;;5112802;28;20459;-62
2023/01/20 09:18:11;;;;;;;8.93;4.60;;;2.60;98.00;;;;;;5112811;28;20463;-62
2023/01/20 09:20:38;;;;;;;7.90;4.53;;;2.60;98.00;;;;;;5077908;28;20968;-62
2023/01/20 09:23:06;;;;;;;8.53;5.37;;;2.50;98.00;;;;;;5128506;27;20449;-62
2023/01/20 09:25:33;;;;;;;6.00;4.60;;;2.50;98.00;;;;;;5115034;27;20462;-61
2023/01/20 09:28:01;;;;;;;10.30;5.83;;;2.60;98.00;;;;;;5075481;28;20464;-61
2023/01/20 09:30:30;;;;;;;7.20;4.60;;;2.40;98.00;;;;;;5092233;28;20453;-61
2023/01/20 09:32:58;;;;;;;7.60;4.80;;;2.40;98.00;;;;;;5092428;28;20459;-61
2023/01/20 09:35:25;;;;;;;10.30;4.60;;;2.50;98.00;;;;;;5091920;28;20487;-61
2023/01/20 09:43:54;;;;;;;11.10;4.30;;;2.50;98.00;;;;;;5092029;28;20440;-62
2023/01/20 09:46:30;;;;;;;6.50;3.13;;;2.50;98.00;;;;;;5092821;27;20526;-62
2023/01/20 09:54:47;;;;;;;6.77;4.27;;;2.70;98.00;;;;;;5112049;28;20483;-61
2023/01/20 09:57:15;;;;;;;8.63;4.30;;;2.80;98.00;;;;;;5093696;28;20520;-61
2023/01/20 09:59:49;;;;;;;5.03;3.87;;;2.70;98.00;;;;;;5112019;28;20764;-61
2023/01/20 10:02:27;;;;;;;7.80;4.40;;;2.80;98.00;;;;;;5093311;28;20458;-61
2023/01/20 10:05:00;;;;;;;9.50;3.50;;;2.80;98.00;;;;;;5111776;28;20548;-62
2023/01/20 10:07:36;;;;;;;24.67;5.00;;;2.70;98.00;;;;;;5111827;28;20439;-61
2023/01/20 10:10:11;;;;;;;6.20;4.50;;;2.80;98.00;;;;;;5111878;28;20456;-61
2023/01/20 10:12:42;;;;;;;12.60;4.17;;;2.90;98.00;;;;;;5111788;28;20940;-62
2023/01/20 10:15:15;;;;;;;9.90;4.50;;;3.00;98.00;;;;;;5111633;28;20491;-62
2023/01/20 10:17:50;;;;;;;5.87;3.43;;;3.20;98.00;;;;;;5093396;28;20454;-62
2023/01/20 10:20:25;;;;;;;11.70;4.67;;;3.10;98.00;;;;;;5111713;28;20529;-61
2023/01/20 10:22:55;;;;;;;5.40;4.07;;;3.10;98.00;;;;;;5111683;28;20508;-62
2023/01/20 10:25:28;;;;;;;6.20;3.90;;;3.00;98.00;;;;;;5111602;28;20455;-62
2023/01/20 10:27:58;;;;;;;9.20;5.30;;;3.20;98.00;;;;;;5111941;28;20484;-62
2023/01/20 10:30:30;;;;;;;6.83;5.13;;;3.30;98.00;;;;;;5093631;28;20462;-62
2023/01/20 10:33:03;;;;;;;6.50;3.97;;;3.40;98.00;;;;;;5119280;27;20451;-62
2023/01/20 10:35:36;;;;;;;11.23;4.57;;;3.50;98.00;;;;;;5131979;27;20489;-62
2023/01/20 10:38:08;;;;;;;7.53;3.77;;;3.70;98.00;;;;;;5132115;28;20458;-62
2023/01/20 10:40:41;;;;;;;5.63;4.07;;;3.80;98.00;;;;;;5131539;27;20455;-62
2023/01/20 10:43:11;;;;;;;8.47;3.57;;;3.60;98.00;;;;;;5131848;28;20460;-62
2023/01/20 10:46:08;;;;;;;6.00;4.17;;;3.40;98.00;;;;;;5131923;28;20446;-62
2023/01/20 10:48:52;;;;;;;7.07;3.87;;;3.30;98.00;;;;;;5113355;28;20454;-62
2023/01/20 10:51:27;;;;;;;5.83;3.80;;;3.40;98.00;;;;;;5131981;28;20461;-61
2023/01/20 10:54:03;;;;;;;11.90;4.30;;;3.40;98.00;;;;;;5131987;28;21067;-62
2023/01/20 10:56:37;;;;;;;8.23;4.37;;;3.50;98.00;;;;;;5131968;28;20450;-62
2023/01/20 10:59:12;;;;;;;5.80;3.93;;;3.60;98.00;;;;;;5131790;28;20454;-62
2023/01/20 11:01:41;;;;;;;11.60;4.20;;;3.40;98.00;;;;;;5131808;28;20457;-62
2023/01/20 11:04:19;;;;;;;10.63;5.83;;;3.40;98.00;;;;;;5131895;28;20477;-62
2023/01/20 11:06:49;;;;;;;6.77;3.77;;;3.40;98.00;;;;;;5113297;28;20460;-62
2023/01/20 11:09:24;;;;;;;5.83;4.03;;;3.60;98.00;;;;;;5111399;28;20502;-62
2023/01/20 11:11:54;;;;;;;5.50;4.00;;;3.80;98.00;;;;;;5111269;28;20460;-62
2023/01/20 11:14:22;;;;;;;5.83;3.70;;;3.90;98.00;;;;;;5109064;28;20499;-62
2023/01/20 11:16:52;;;;;;;10.10;4.33;;;4.00;98.00;;;;;;5111019;28;20791;-62
2023/01/20 11:19:20;;;;;;;6.73;4.23;;;3.90;98.00;;;;;;5111383;28;20525;-62
2023/01/20 11:21:49;;;;;;;6.20;3.73;;;4.00;98.00;;;;;;5093002;28;20547;-62
2023/01/20 11:24:42;;;;;;;7.00;3.60;;;4.00;98.00;;;;;;5110829;28;20940;-62
2023/01/20 11:27:15;;;;;;;9.63;4.83;;;4.00;98.00;;;;;;5111365;28;20457;-61
2023/01/20 11:29:45;;;;;;;9.30;4.50;;;4.10;98.00;;;;;;5111329;28;20459;-62
2023/01/20 11:32:26;;;;;;;7.07;4.27;;;4.30;98.00;;;;;;5111088;28;20468;-62
2023/01/20 11:34:56;;;;;;;3.90;3.20;;;4.40;98.00;;;;;;5111052;28;20483;-62
2023/01/20 11:37:28;;;;;;;8.60;4.73;;;4.60;98.00;;;;;;5093000;28;20458;-62
2023/01/20 11:40:04;;;;;;;10.47;4.17;;;4.70;98.00;;;;;;5111133;28;20445;-62
2023/01/20 11:42:42;;;;;;;10.03;3.70;;;4.80;98.00;;;;;;5110938;28;20449;-62
2023/01/20 11:45:31;;;;;;;5.63;3.97;;;5.10;98.00;;;;;;5111035;28;20451;-62
2023/01/20 11:48:15;;;;;;;5.93;3.50;;;5.30;98.00;;;;;;5092563;28;20531;-62
2023/01/20 11:50:48;;;;;;;6.43;3.10;;;5.20;98.00;;;;;;5110952;28;20861;-61
2023/01/20 11:53:23;;;;;;;8.30;4.20;;;5.10;98.00;;;;;;5114438;28;21014;-62
2023/01/20 11:55:55;;;;;;;6.93;3.20;;;5.00;98.00;;;;;;5114509;28;20495;-61
2023/01/20 11:58:24;;;;;;;9.17;3.73;;;4.90;98.00;;;;;;5114613;28;20469;-61
2023/01/20 12:00:58;;;;;;;6.00;3.50;;;4.90;98.00;;;;;;5114149;28;20454;-61
2023/01/20 12:03:58;;;;;;;5.33;3.13;;;5.20;98.00;;;;;;5114333;28;20462;-61
2023/01/20 12:06:29;;;;;;;8.27;4.07;;;5.50;98.00;;;;;;5109411;28;20475;-62
2023/01/20 12:09:01;;;;;;;5.73;2.90;;;5.80;98.00;;;;;;5114388;28;20859;-62
2023/01/20 12:11:31;;;;;;;5.27;3.30;;;6.00;98.00;;;;;;5114035;28;20976;-62
2023/01/20 12:14:23;;;;;;;9.23;3.80;;;6.30;98.00;;;;;;5114119;28;20457;-62
2023/01/20 12:17:10;;;;;;;5.37;3.03;;;6.40;98.00;;;;;;5113980;28;20453;-62
2023/01/20 12:19:48;;;;;;;6.70;3.23;;;6.50;98.00;;;;;;5114103;28;20458;-62
2023/01/20 12:22:24;;;;;;;7.80;3.17;;;6.80;98.00;;;;;;5114017;28;20459;-62
2023/01/20 12:25:13;;;;;;;4.57;3.00;;;7.00;98.00;;;;;;5113582;28;20462;-62
2023/01/20 12:27:49;;;;;;;3.73;2.87;;;6.90;98.00;;;;;;5098831;28;20532;-62
2023/01/20 12:30:46;;;;;;;6.40;3.20;;;6.90;98.00;;;;;;5111841;28;20458;-62
2023/01/20 12:33:22;;;;;;;5.23;2.87;;;6.80;98.00;;;;;;5114779;28;20825;-62
2023/01/20 12:36:11;;;;;;;5.33;2.77;;;6.70;98.00;;;;;;5114108;28;20489;-62
2023/01/20 12:38:51;;;;;;;4.20;2.90;;;6.30;98.00;;;;;;5114570;28;20459;-63
2023/01/20 12:41:33;;;;;;;4.03;2.60;;;6.20;98.00;;;;;;5114275;28;20460;-62
2023/01/20 12:44:13;;;;;;;7.30;2.67;;;6.40;98.00;;;;;;5114217;28;20459;-62
2023/01/20 12:46:46;;;;;;;3.83;2.63;;;6.40;98.00;;;;;;5113831;28;20470;-62
2023/01/20 12:49:41;;;;;;;4.70;3.30;;;6.50;98.00;;;;;;5114076;28;20455;-62
2023/01/20 12:52:25;;;;;;;4.80;2.63;;;6.40;98.00;;;;;;5113987;28;20854;-62
2023/01/20 12:55:24;;;;;;;3.97;2.70;;;6.50;98.00;;;;;;5113988;28;20485;-62
2023/01/20 12:58:14;;;;;;;4.07;2.20;;;6.70;98.00;;;;;;5114020;28;20458;-62
2023/01/20 13:00:53;;;;;;;4.90;2.40;;;6.70;98.00;;;;;;5093355;28;20854;-62
2023/01/20 13:03:45;;;;;;;3.40;2.33;;;6.70;98.00;;;;;;5075732;28;20496;-62
2023/01/20 13:06:34;;;;;;;5.93;3.50;;;6.60;98.00;;;;;;5093439;28;20467;-62
2023/01/20 13:09:12;;;;;;;2.90;1.87;;;6.20;98.00;;;;;;5093637;28;20528;-62
2023/01/20 13:11:57;;;;;;;5.40;2.70;;;6.10;98.00;;;;;;5093109;28;20456;-62
2023/01/20 13:14:32;;;;;;;5.40;2.00;;;6.10;98.00;;;;;;5093271;28;20464;-62
2023/01/20 13:17:06;;;;;;;5.20;2.73;;;6.20;98.00;;;;;;5092394;28;20460;-62
2023/01/20 13:19:36;;;;;;;2.87;2.10;;;6.00;98.00;;;;;;5092827;28;20547;-62
2023/01/20 13:22:11;;;;;;;3.37;2.30;;;5.90;98.00;;;;;;5093108;28;20459;-62
2023/01/20 13:24:41;;;;;;;3.63;2.60;;;5.80;98.00;;;;;;5093212;28;20802;-62
2023/01/20 13:27:12;;;;;;;2.77;2.07;;;5.80;98.00;;;;;;5093452;28;20468;-62
2023/01/20 13:29:52;;;;;;;4.03;2.57;;;5.80;98.00;;;;;;5092990;28;20532;-62